Lucketts, Virginia
Current Conditions -  °F | °C
As of 6:55 PM on Monday 22 Dec 2014 (Local Time) from KJYO Reporting Station
Unknown Precip Unknown Precip  
Wind Chill: 28°   Ceiling: 500
Heat Index: 34°   Visibility: 2.5mi
Dew Point: 34°   Wind: 7mph
Humidity: 100%   Direction: 340°NNW
Pressure: 30.2"   Gusts: NA
Location:  39.1846°N, 77.5476°W
Report Text: KJYO 222355Z AUTO 34006KT 2 1/2SM UP BKN005 BKN009 OVC012 01/01 A3020 RMK AO2 P0003
Loading
Personal Weather Stations






























Interactive Weather Map New forecast layout! Learn more

10-Day Weather Forecast

Advertisements
Track Severe Weather on mobile